Time;durP1;ratioP1;P1;durP2;ratioP2;P2;SDS_P1;SDS_P2;PMS_P1;PMS_P2;Temp;Humidity;BMP_temperature;BMP_pressure;BME280_temperature;BME280_humidity;BME280_pressure;Samples;Min_cycle;Max_cycle;Signal;HPM_P1;HPM_P2
2021/05/08 00:02:07;;;;;;;12.30;3.80;;;;;;;22.33;54.09;100786.34;144992;610;6002;-81
2021/05/08 00:04:34;;;;;;;8.30;3.58;;;;;;;22.34;54.32;100781.94;144992;655;6002;-80
2021/05/08 00:07:01;;;;;;;6.90;3.33;;;;;;;22.34;54.27;100782.81;144992;640;6002;-79
2021/05/08 00:09:28;;;;;;;6.35;3.20;;;;;;;22.37;54.00;100782.75;144992;594;6002;-80
2021/05/08 00:11:56;;;;;;;9.27;3.42;;;;;;;22.40;54.01;100782.69;144992;639;6003;-81
2021/05/08 00:14:23;;;;;;;6.95;3.42;;;;;;;22.41;54.21;100797.69;144992;588;6002;-79
2021/05/08 00:16:50;;;;;;;7.82;3.37;;;;;;;22.36;53.96;100812.72;144992;655;6002;-80
2021/05/08 00:19:16;;;;;;;7.50;3.10;;;;;;;22.34;53.98;100813.69;144991;580;6002;-80
2021/05/08 00:21:43;;;;;;;5.78;3.33;;;;;;;22.16;54.92;100815.69;144992;673;6002;-80
2021/05/08 00:24:09;;;;;;;7.10;3.35;;;;;;;22.07;55.01;100819.34;144991;571;6011;-80
2021/05/08 00:26:36;;;;;;;7.30;3.58;;;;;;;21.93;55.34;100830.13;144992;685;6002;-79
2021/05/08 00:29:03;;;;;;;8.50;3.80;;;;;;;21.85;55.68;100844.38;144992;650;6002;-79
2021/05/08 00:31:30;;;;;;;5.68;3.78;;;;;;;21.88;55.74;100852.25;144992;592;6002;-79
2021/05/08 00:33:56;;;;;;;6.50;3.33;;;;;;;21.84;55.38;100848.81;144992;650;6002;-81
2021/05/08 00:36:23;;;;;;;8.75;4.05;;;;;;;21.88;55.40;100855.78;144992;572;6002;-80
2021/05/08 00:38:51;;;;;;;6.50;3.37;;;;;;;21.91;55.11;100852.22;144992;600;6002;-81
2021/05/08 00:41:17;;;;;;;6.95;3.30;;;;;;;21.95;55.51;100855.69;144992;675;6002;-80
2021/05/08 00:43:44;;;;;;;6.82;3.37;;;;;;;21.99;55.38;100857.41;144992;594;6002;-79
2021/05/08 00:46:11;;;;;;;5.95;3.50;;;;;;;22.05;55.29;100859.94;144992;574;6002;-79
2021/05/08 00:48:37;;;;;;;7.68;3.55;;;;;;;22.09;55.10;100874.84;144992;566;6002;-79
2021/05/08 00:51:04;;;;;;;6.53;3.20;;;;;;;22.10;55.68;100881.88;144992;596;6002;-81
2021/05/08 00:53:31;;;;;;;7.30;3.40;;;;;;;22.05;55.40;100876.66;144992;583;6002;-80
2021/05/08 00:55:58;;;;;;;6.28;3.17;;;;;;;22.06;55.18;100881.06;144992;618;6002;-79
2021/05/08 00:58:24;;;;;;;5.57;3.58;;;;;;;22.02;55.60;100870.56;144992;588;6002;-80
2021/05/08 01:00:54;;;;;;;9.15;3.45;;;;;;;22.00;55.37;100854.72;144992;571;6002;-78
2021/05/08 01:03:22;;;;;;;9.20;3.90;;;;;;;21.93;55.66;100839.84;144992;617;6002;-80
2021/05/08 01:05:48;;;;;;;6.37;3.90;;;;;;;21.90;56.24;100838.16;144992;633;6002;-79
2021/05/08 01:08:16;;;;;;;7.90;4.28;;;;;;;21.85;55.91;100834.66;144992;582;6002;-81
2021/05/08 01:10:43;;;;;;;8.02;3.97;;;;;;;21.73;57.55;100840.16;144992;603;6002;-81
2021/05/08 01:13:10;;;;;;;5.90;3.72;;;;;;;21.68;56.56;100834.94;144993;598;6002;-80
2021/05/08 01:15:37;;;;;;;9.43;3.85;;;;;;;21.69;56.85;100827.88;144993;569;6002;-80
2021/05/08 01:18:04;;;;;;;8.88;3.28;;;;;;;21.73;57.11;100825.19;144993;656;6002;-81
2021/05/08 01:20:34;;;;;;;8.02;3.10;;;;;;;21.74;57.03;100826.91;144993;578;6002;-81
2021/05/08 01:23:01;;;;;;;7.05;3.80;;;;;;;21.85;56.10;100828.53;144993;587;6002;-81
2021/05/08 01:25:28;;;;;;;5.30;2.70;;;;;;;21.92;55.89;100809.91;144993;593;6002;-80
2021/05/08 01:27:57;;;;;;;5.80;2.58;;;;;;;22.00;55.60;100801.88;144993;569;6002;-81
2021/05/08 01:30:37;;;;;;;10.10;2.53;;;;;;;22.04;55.40;100792.97;144993;615;6002;-82
2021/05/08 01:33:05;;;;;;;7.78;2.50;;;;;;;22.10;55.04;100794.66;144993;570;6002;-81
2021/05/08 01:35:32;;;;;;;4.30;2.50;;;;;;;22.06;53.52;100782.37;144993;631;6002;-82
2021/05/08 01:37:59;;;;;;;4.93;1.80;;;;;;;21.97;53.69;100782.53;144993;577;6002;-82
2021/05/08 01:40:34;;;;;;;10.07;2.40;;;;;;;21.92;54.69;100775.56;144992;586;6002;-82
2021/05/08 01:43:01;;;;;;;9.38;2.90;;;;;;;21.90;54.82;100756.22;144993;617;6002;-80
2021/05/08 01:45:28;;;;;;;8.18;3.20;;;;;;;21.93;54.64;100757.94;144992;566;6002;-82
2021/05/08 01:47:56;;;;;;;7.45;3.20;;;;;;;21.88;54.25;100765.91;144992;628;6002;-83
2021/05/08 01:50:25;;;;;;;6.25;3.00;;;;;;;21.85;54.41;100768.63;144992;674;6002;-79
2021/05/08 01:52:52;;;;;;;6.18;3.08;;;;;;;21.86;54.46;100767.72;144992;619;6002;-81
2021/05/08 01:55:24;;;;;;;7.15;3.65;;;;;;;21.91;54.40;100767.66;144992;611;6003;-81
2021/05/08 01:57:53;;;;;;;8.55;3.78;;;;;;;21.95;54.34;100771.97;144992;619;6002;-80
2021/05/08 02:00:34;;;;;;;7.53;3.70;;;;;;;21.98;54.08;100764.00;144993;583;6002;-79
2021/05/08 02:03:01;;;;;;;6.93;3.50;;;;;;;21.84;54.60;100739.56;144993;624;6003;-80
2021/05/08 02:05:30;;;;;;;9.23;3.45;;;;;;;21.82;54.65;100738.72;144993;577;6002;-80
2021/05/08 02:08:01;;;;;;;6.75;3.05;;;;;;;21.74;55.13;100742.34;144993;666;6002;-80
2021/05/08 02:10:28;;;;;;;10.13;3.58;;;;;;;21.75;54.94;100740.59;144993;566;6002;-79
2021/05/08 02:12:57;;;;;;;7.82;3.40;;;;;;;21.76;54.90;100746.75;144993;650;6002;-81
2021/05/08 02:15:23;;;;;;;9.98;3.67;;;;;;;21.69;55.05;100731.00;144993;727;6002;-81
2021/05/08 02:17:49;;;;;;;8.80;3.08;;;;;;;21.67;55.03;100705.53;144993;613;6002;-80
2021/05/08 02:20:26;;;;;;;10.52;3.40;;;;;;;21.72;54.81;100708.97;144993;574;6002;-79
2021/05/08 02:22:57;;;;;;;5.25;3.10;;;;;;;21.74;54.70;100700.09;144993;584;6002;-79
2021/05/08 02:25:25;;;;;;;7.05;3.75;;;;;;;21.71;54.90;100713.38;144993;626;6002;-78
2021/05/08 02:27:51;;;;;;;11.10;4.72;;;;;;;21.69;54.86;100717.78;144993;617;6002;-79
2021/05/08 02:30:30;;;;;;;8.73;4.15;;;;;;;21.63;54.89;100723.16;144993;647;6002;-81
2021/05/08 02:32:56;;;;;;;8.32;4.72;;;;;;;21.49;55.43;100733.06;144993;692;6002;-80
2021/05/08 02:35:24;;;;;;;11.50;4.55;;;;;;;21.31;55.80;100736.84;144993;601;6002;-80
2021/05/08 02:37:51;;;;;;;8.60;4.20;;;;;;;21.16;55.83;100737.94;144993;565;6002;-81
2021/05/08 02:40:23;;;;;;;15.10;4.57;;;;;;;21.20;56.40;100750.19;144993;634;6002;-80
2021/05/08 02:42:50;;;;;;;11.38;4.28;;;;;;;21.22;55.86;100758.09;144993;564;6002;-80
2021/05/08 02:45:17;;;;;;;9.60;4.18;;;;;;;21.24;55.54;100769.47;144993;574;6002;-81
2021/05/08 02:47:45;;;;;;;13.93;5.32;;;;;;;21.11;55.97;100771.41;144993;563;6002;-80
2021/05/08 02:50:17;;;;;;;11.88;4.65;;;;;;;21.09;55.89;100803.09;144993;647;6002;-80
2021/05/08 02:52:44;;;;;;;13.38;4.40;;;;;;;21.05;56.01;100811.97;144994;565;5002;-80
2021/05/08 02:55:12;;;;;;;15.85;4.12;;;;;;;20.99;56.39;100794.44;144993;603;5002;-79
2021/05/08 02:57:39;;;;;;;8.05;4.65;;;;;;;21.00;56.20;100790.91;144994;605;5002;-83
2021/05/08 03:00:10;;;;;;;9.73;4.20;;;;;;;21.08;56.12;100809.31;144994;563;5002;-82
2021/05/08 03:02:37;;;;;;;7.03;3.80;;;;;;;20.96;56.39;100809.44;144994;616;5003;-81
2021/05/08 03:05:06;;;;;;;12.68;4.07;;;;;;;20.85;57.26;100814.84;144994;638;5002;-80
2021/05/08 03:07:33;;;;;;;10.73;4.70;;;;;;;21.08;56.18;100816.31;144994;606;5002;-81
2021/05/08 03:10:00;;;;;;;10.30;4.53;;;;;;;21.09;56.88;100816.31;144994;638;5003;-80
2021/05/08 03:12:27;;;;;;;7.47;4.07;;;;;;;20.73;58.75;100836.06;144994;681;5002;-82
2021/05/08 03:14:54;;;;;;;8.77;4.12;;;;;;;20.72;58.22;100850.16;144994;645;5002;-80
2021/05/08 03:17:21;;;;;;;6.15;3.78;;;;;;;20.81;58.01;100856.22;144994;564;5002;-81
2021/05/08 03:19:47;;;;;;;8.00;3.08;;;;;;;20.84;57.92;100868.50;144994;595;5002;-80
2021/05/08 03:22:14;;;;;;;9.60;3.90;;;;;;;20.79;58.41;100863.28;144993;569;5002;-80
2021/05/08 03:24:41;;;;;;;15.45;3.92;;;;;;;20.85;59.54;100854.41;144994;606;5002;-80
2021/05/08 03:27:10;;;;;;;11.07;3.70;;;;;;;20.87;61.77;100863.19;144994;584;5002;-80
2021/05/08 03:29:38;;;;;;;7.45;3.78;;;;;;;20.92;61.93;100849.94;144994;633;5002;-81
2021/05/08 03:32:04;;;;;;;8.50;3.50;;;;;;;20.89;63.14;100848.22;144994;571;5002;-80
2021/05/08 03:34:31;;;;;;;9.50;3.30;;;;;;;20.91;59.73;100848.19;144994;652;5002;-80
2021/05/08 03:36:58;;;;;;;5.85;3.60;;;;;;;20.98;60.44;100853.41;144994;608;5002;-81
2021/05/08 03:39:25;;;;;;;6.60;3.30;;;;;;;21.01;58.84;100850.72;144994;610;5002;-80
2021/05/08 03:41:51;;;;;;;8.82;3.83;;;;;;;21.15;58.20;100845.25;144994;570;5002;-80
2021/05/08 03:44:18;;;;;;;8.55;3.83;;;;;;;21.24;57.79;100843.41;144994;588;5002;-80
2021/05/08 03:46:45;;;;;;;11.63;3.83;;;;;;;21.32;58.42;100842.44;144994;571;5002;-80
2021/05/08 03:49:11;;;;;;;7.35;3.87;;;;;;;21.32;58.44;100838.94;144994;558;5002;-81
2021/05/08 03:51:38;;;;;;;8.98;4.10;;;;;;;21.36;58.22;100840.63;144994;552;5002;-80
2021/05/08 03:54:05;;;;;;;7.07;3.15;;;;;;;21.40;58.03;100849.38;144993;559;5002;-82
2021/05/08 03:56:31;;;;;;;5.28;3.35;;;;;;;21.40;63.64;100847.63;144994;601;5002;-80
2021/05/08 03:58:58;;;;;;;5.43;3.00;;;;;;;21.43;58.14;100841.41;144994;574;5002;-80
2021/05/08 04:01:27;;;;;;;5.82;3.17;;;;;;;21.44;62.96;100819.38;144994;563;5002;-80
2021/05/08 04:03:54;;;;;;;12.57;3.90;;;;;;;21.38;59.85;100810.66;144994;621;5002;-80
2021/05/08 04:06:21;;;;;;;14.18;4.20;;;;;;;21.32;59.83;100796.69;144994;600;5002;-81
2021/05/08 04:08:48;;;;;;;12.30;4.40;;;;;;;21.30;58.84;100782.59;144994;578;5002;-79
2021/05/08 04:11:15;;;;;;;14.48;5.00;;;;;;;21.23;58.67;100767.75;144994;564;5002;-80
2021/05/08 04:13:41;;;;;;;9.85;4.45;;;;;;;21.14;59.50;100750.25;144994;561;5002;-80
2021/05/08 04:16:08;;;;;;;13.88;4.95;;;;;;;21.05;59.52;100726.66;144994;565;5002;-82
2021/05/08 04:18:34;;;;;;;13.32;4.65;;;;;;;20.95;59.77;100715.31;144994;570;5002;-80
2021/05/08 04:21:01;;;;;;;13.95;5.10;;;;;;;20.79;59.91;100712.00;144994;688;5002;-81
2021/05/08 04:23:27;;;;;;;11.25;4.40;;;;;;;20.68;60.58;100722.72;144994;565;5002;-80
2021/05/08 04:25:54;;;;;;;9.55;4.57;;;;;;;20.60;60.41;100730.69;144994;711;5002;-80
2021/05/08 04:28:20;;;;;;;11.32;4.75;;;;;;;20.71;59.46;100745.53;144994;579;5002;-80
2021/05/08 04:30:46;;;;;;;14.27;4.87;;;;;;;20.73;60.49;100751.66;144994;645;5002;-81
2021/05/08 04:33:13;;;;;;;16.52;5.18;;;;;;;20.86;59.08;100749.78;144994;661;5002;-80
2021/05/08 04:35:40;;;;;;;10.32;3.75;;;;;;;20.83;61.74;100750.66;144994;564;5002;-80
2021/05/08 04:38:06;;;;;;;15.15;4.97;;;;;;;20.95;60.39;100747.00;144994;565;5002;-81
2021/05/08 04:40:33;;;;;;;8.85;4.55;;;;;;;21.08;58.74;100739.78;144994;656;5002;-80
2021/05/08 04:43:02;;;;;;;15.02;4.57;;;;;;;21.18;58.65;100755.47;144994;563;5002;-81
2021/05/08 04:45:28;;;;;;;15.77;4.90;;;;;;;21.15;61.07;100770.50;144994;557;5002;-81
2021/05/08 04:48:04;;;;;;;15.05;4.68;;;;;;;21.12;60.69;100768.75;144994;559;5002;-82
2021/05/08 04:50:31;;;;;;;10.90;4.82;;;;;;;21.18;59.57;100767.81;144993;744;5002;-79
2021/05/08 04:52:57;;;;;;;13.55;4.65;;;;;;;21.24;59.35;100767.75;144994;563;5002;-79
2021/05/08 04:55:23;;;;;;;13.25;4.80;;;;;;;21.21;59.31;100775.69;144994;563;5002;-80
2021/05/08 04:57:50;;;;;;;9.43;4.45;;;;;;;21.15;60.14;100791.62;144994;672;5002;-80
2021/05/08 05:00:18;;;;;;;10.68;4.32;;;;;;;20.96;63.97;100820.84;144994;608;5002;-81
2021/05/08 05:02:46;;;;;;;9.05;4.32;;;;;;;20.95;61.41;100828.78;144994;579;5002;-81
2021/05/08 05:05:14;;;;;;;9.88;4.25;;;;;;;20.99;64.19;100843.72;144994;570;5002;-79
2021/05/08 05:07:44;;;;;;;11.10;4.57;;;;;;;21.06;61.51;100850.69;144994;613;5002;-81
2021/05/08 05:10:12;;;;;;;9.18;4.47;;;;;;;20.96;62.32;100865.72;144994;588;5002;-79
2021/05/08 05:12:38;;;;;;;10.40;4.07;;;;;;;21.00;64.71;100890.31;144994;608;5002;-80
2021/05/08 05:15:06;;;;;;;7.57;4.10;;;;;;;21.14;61.25;100898.97;144993;652;5002;-79
2021/05/08 05:17:33;;;;;;;11.35;4.18;;;;;;;21.28;60.82;100906.72;144994;566;5002;-80
2021/05/08 05:20:00;;;;;;;10.40;4.45;;;;;;;21.42;61.12;100908.34;144994;565;5002;-80
2021/05/08 05:22:28;;;;;;;6.82;3.90;;;;;;;21.40;62.16;100915.41;144994;663;5012;-81
2021/05/08 05:24:55;;;;;;;9.90;4.53;;;;;;;21.64;60.77;100919.53;144994;563;5003;-80
2021/05/08 05:27:21;;;;;;;11.43;3.17;;;;;;;21.69;60.88;100918.56;144994;564;5002;-79
2021/05/08 05:29:50;;;;;;;12.50;4.07;;;;;;;21.63;61.63;100929.22;144994;621;5002;-81
2021/05/08 05:32:17;;;;;;;8.07;4.93;;;;;;;21.55;63.72;100931.97;144994;555;5002;-81
2021/05/08 05:34:43;;;;;;;8.85;3.90;;;;;;;21.52;64.62;100925.84;144994;564;5002;-79
2021/05/08 05:37:10;;;;;;;10.98;3.90;;;;;;;21.60;61.97;100923.09;144994;689;5002;-79
2021/05/08 05:39:37;;;;;;;5.93;2.90;;;;;;;21.76;61.47;100926.41;144994;588;5002;-79
2021/05/08 05:42:04;;;;;;;8.05;3.35;;;;;;;21.75;64.53;100936.13;144994;593;5002;-80
2021/05/08 05:44:31;;;;;;;8.07;3.15;;;;;;;21.77;63.83;100946.66;144994;656;5002;-80
2021/05/08 05:46:57;;;;;;;5.97;3.03;;;;;;;21.71;64.29;100951.16;144994;574;5002;-80
2021/05/08 05:49:24;;;;;;;8.73;3.83;;;;;;;21.58;67.01;100946.88;144994;655;5002;-78
2021/05/08 05:51:50;;;;;;;6.72;3.78;;;;;;;21.67;68.10;100940.62;144994;659;5002;-80
2021/05/08 05:54:17;;;;;;;6.37;3.37;;;;;;;21.82;64.55;100929.84;144994;573;5002;-80
2021/05/08 05:56:43;;;;;;;9.90;5.57;;;;;;;21.73;67.84;100941.44;144994;631;5002;-81
2021/05/08 05:59:10;;;;;;;10.43;4.72;;;;;;;21.88;66.71;100944.75;144994;630;5002;-81
2021/05/08 06:01:36;;;;;;;15.85;7.25;;;;;;;22.05;63.71;100952.47;144994;698;5002;-81
2021/05/08 06:04:05;;;;;;;12.13;5.28;;;;;;;22.22;63.14;100931.94;144994;578;5002;-80
2021/05/08 06:06:33;;;;;;;10.20;3.47;;;;;;;22.44;62.96;100944.84;144994;578;5002;-80
2021/05/08 06:08:59;;;;;;;7.80;3.80;;;;;;;22.60;62.47;100948.13;144994;571;5002;-82
2021/05/08 06:11:26;;;;;;;6.90;3.60;;;;;;;22.73;62.30;100962.00;144994;588;5002;-79
2021/05/08 06:13:52;;;;;;;14.07;6.15;;;;;;;22.89;61.72;100962.63;144994;623;5002;-80
2021/05/08 06:16:18;;;;;;;9.25;5.07;;;;;;;22.96;61.68;100959.84;144994;587;5003;-81
2021/05/08 06:18:45;;;;;;;9.52;4.82;;;;;;;22.89;60.03;100954.69;144994;584;5002;-81
2021/05/08 06:21:11;;;;;;;11.60;5.07;;;;;;;23.01;60.70;100954.47;144994;605;5002;-80
2021/05/08 06:23:38;;;;;;;10.20;5.45;;;;;;;23.16;60.95;100963.94;144994;593;5002;-80
2021/05/08 06:26:04;;;;;;;8.73;4.50;;;;;;;23.31;60.14;100947.75;144994;586;5002;-81
2021/05/08 06:28:31;;;;;;;10.35;3.97;;;;;;;23.31;58.19;100942.47;144994;564;5002;-80
2021/05/08 06:30:57;;;;;;;9.75;4.25;;;;;;;23.31;58.28;100944.25;144994;611;5002;-81
2021/05/08 06:33:24;;;;;;;9.75;3.60;;;;;;;23.45;59.35;100943.94;144994;571;5002;-80
2021/05/08 06:35:51;;;;;;;8.82;3.80;;;;;;;23.54;59.14;100943.78;144994;613;5002;-81
2021/05/08 06:38:17;;;;;;;8.57;3.53;;;;;;;23.65;59.26;100943.56;144994;595;5002;-81
2021/05/08 06:40:44;;;;;;;7.95;2.95;;;;;;;23.79;58.71;100952.09;144994;564;5002;-81
2021/05/08 06:43:10;;;;;;;6.87;2.50;;;;;;;23.95;58.05;100951.78;144994;591;5002;-79
2021/05/08 06:45:36;;;;;;;7.95;3.00;;;;;;;24.03;57.23;100949.84;144994;599;5002;-81
2021/05/08 06:48:03;;;;;;;7.05;2.85;;;;;;;24.03;52.83;100934.78;144994;596;5002;-80
2021/05/08 06:50:30;;;;;;;6.80;2.58;;;;;;;23.87;53.21;100939.56;144994;573;5002;-81
2021/05/08 06:52:56;;;;;;;6.22;2.50;;;;;;;23.97;57.21;100934.94;144994;569;5002;-79
2021/05/08 06:55:23;;;;;;;9.18;2.80;;;;;;;24.11;56.76;100925.81;144994;586;5002;-81
2021/05/08 06:57:50;;;;;;;4.28;2.25;;;;;;;24.14;57.01;100923.94;144994;677;5002;-80
2021/05/08 07:00:21;;;;;;;6.35;2.20;;;;;;;24.25;56.46;100921.91;144993;594;5002;-80
2021/05/08 07:02:48;;;;;;;7.68;2.87;;;;;;;24.33;53.55;100920.88;144994;600;5002;-80
2021/05/08 07:05:14;;;;;;;5.55;2.50;;;;;;;24.33;55.78;100926.16;144994;597;5002;-80
2021/05/08 07:07:41;;;;;;;8.55;3.00;;;;;;;24.45;55.92;100917.91;144994;556;5002;-80
2021/05/08 07:10:09;;;;;;;13.10;3.97;;;;;;;24.61;56.06;100918.44;144993;593;5002;-80
2021/05/08 07:12:38;;;;;;;11.10;3.20;;;;;;;24.74;51.35;100911.03;144994;587;5002;-79
2021/05/08 07:15:06;;;;;;;7.20;3.58;;;;;;;24.83;50.30;100908.09;144994;586;5002;-79
2021/05/08 07:17:33;;;;;;;12.60;4.68;;;;;;;24.70;48.64;100899.59;144994;579;5002;-82
2021/05/08 07:19:59;;;;;;;10.82;5.00;;;;;;;24.78;54.31;100910.03;144994;577;5002;-80
2021/05/08 07:22:26;;;;;;;11.32;5.00;;;;;;;24.92;54.23;100901.69;144994;657;5002;-80
2021/05/08 07:24:52;;;;;;;10.68;3.87;;;;;;;25.05;51.06;100900.44;144994;593;4566;-81
2021/05/08 07:27:20;;;;;;;12.18;4.50;;;;;;;25.13;53.56;100906.44;144994;577;4569;-80
2021/05/08 07:29:46;;;;;;;10.73;4.57;;;;;;;25.26;53.62;100901.63;144994;552;4572;-81
2021/05/08 07:32:13;;;;;;;12.48;3.72;;;;;;;25.40;53.52;100901.25;144992;557;6002;-80
2021/05/08 07:34:40;;;;;;;8.65;3.03;;;;;;;25.50;53.10;100893.88;144992;555;6002;-80
2021/05/08 07:37:07;;;;;;;4.95;2.50;;;;;;;25.64;53.44;100893.47;144992;596;6002;-82
2021/05/08 07:39:33;;;;;;;7.95;2.70;;;;;;;25.15;45.22;100893.97;144992;588;6002;-79
2021/05/08 07:42:00;;;;;;;6.65;2.65;;;;;;;25.26;49.14;100901.63;144991;571;6002;-79
2021/05/08 07:44:27;;;;;;;6.87;2.92;;;;;;;25.46;51.86;100901.06;144992;575;6002;-80
2021/05/08 07:46:53;;;;;;;9.07;3.45;;;;;;;25.63;50.29;100905.03;144992;585;6002;-80
2021/05/08 07:49:19;;;;;;;8.93;2.80;;;;;;;25.76;51.03;100914.38;144992;587;6002;-81
2021/05/08 07:51:46;;;;;;;9.02;2.67;;;;;;;25.90;50.34;100913.97;144992;589;6002;-80
2021/05/08 07:54:12;;;;;;;8.80;2.90;;;;;;;25.92;50.18;100909.47;144992;598;6002;-80
2021/05/08 07:56:39;;;;;;;8.30;3.30;;;;;;;26.06;50.14;100907.25;144992;578;6002;-81
2021/05/08 07:59:05;;;;;;;9.40;3.20;;;;;;;26.04;49.51;100914.44;144992;580;6002;-80
2021/05/08 08:01:32;;;;;;;11.02;4.12;;;;;;;26.03;45.45;100906.50;144992;604;6002;-78
2021/05/08 08:03:58;;;;;;;7.10;2.62;;;;;;;25.77;45.50;100912.56;144992;591;6002;-80
2021/05/08 08:06:25;;;;;;;7.65;2.70;;;;;;;25.79;49.24;100914.28;144992;595;6002;-79
2021/05/08 08:08:51;;;;;;;8.15;3.20;;;;;;;25.61;49.04;100905.09;144992;570;6002;-80
2021/05/08 08:11:18;;;;;;;8.50;2.60;;;;;;;25.32;49.31;100900.59;144992;617;6002;-82
2021/05/08 08:13:44;;;;;;;8.15;2.70;;;;;;;25.15;50.20;100911.66;144992;599;6002;-81
2021/05/08 08:16:11;;;;;;;12.85;3.00;;;;;;;24.93;50.83;100911.41;144992;574;6002;-82
2021/05/08 08:18:37;;;;;;;7.97;2.55;;;;;;;24.55;51.47;100906.16;144992;595;6002;-82
2021/05/08 08:21:04;;;;;;;7.60;3.22;;;;;;;24.49;51.95;100910.75;144991;581;6002;-81
2021/05/08 08:23:31;;;;;;;8.50;3.17;;;;;;;24.60;51.90;100909.59;144992;574;6002;-82
2021/05/08 08:25:57;;;;;;;9.82;3.28;;;;;;;24.33;52.15;100915.56;144992;585;6002;-81
2021/05/08 08:28:24;;;;;;;8.38;3.40;;;;;;;24.39;51.39;100918.94;144992;615;6002;-81
2021/05/08 08:30:50;;;;;;;9.95;3.30;;;;;;;24.49;51.59;100924.00;144992;620;6002;-82
2021/05/08 08:33:17;;;;;;;8.98;3.17;;;;;;;24.50;51.44;100937.25;144992;569;6002;-80
2021/05/08 08:35:43;;;;;;;11.12;3.42;;;;;;;24.44;51.61;100934.75;144992;611;6002;-80
2021/05/08 08:38:10;;;;;;;10.02;2.90;;;;;;;24.59;51.97;100945.00;144992;607;6002;-80
2021/05/08 08:40:36;;;;;;;9.40;2.87;;;;;;;24.84;50.56;100951.47;144992;565;6002;-80
2021/05/08 08:43:03;;;;;;;9.57;2.95;;;;;;;24.78;49.89;100955.16;144992;563;6002;-82
2021/05/08 08:45:30;;;;;;;7.30;3.00;;;;;;;24.50;50.77;100966.44;144992;585;6002;-80
2021/05/08 08:47:57;;;;;;;11.48;3.45;;;;;;;24.44;51.17;100958.63;144992;570;6002;-80
2021/05/08 08:50:25;;;;;;;11.60;3.50;;;;;;;24.31;51.65;100966.00;144992;654;6002;-81
2021/05/08 08:52:52;;;;;;;8.65;3.42;;;;;;;24.30;51.73;100968.69;144992;625;6002;-81
2021/05/08 08:55:18;;;;;;;9.38;3.12;;;;;;;24.11;52.38;100970.88;144992;570;6002;-79
2021/05/08 08:57:48;;;;;;;12.32;3.72;;;;;;;24.21;52.64;100967.09;144992;573;6002;-80
2021/05/08 09:00:16;;;;;;;7.87;3.05;;;;;;;24.17;53.85;100979.56;144991;572;6003;-81
2021/05/08 09:02:49;;;;;;;12.43;3.50;;;;;;;24.03;53.95;100989.63;144992;586;6002;-79
2021/05/08 09:05:17;;;;;;;11.43;4.15;;;;;;;23.65;56.00;100980.66;144992;590;6002;-80
2021/05/08 09:07:48;;;;;;;6.30;3.30;;;;;;;23.55;58.17;100990.56;144992;583;6003;-79
2021/05/08 09:10:39;;;;;;;10.40;4.55;;;;;;;23.48;57.82;100992.47;144992;578;6002;-80
2021/05/08 09:13:06;;;;;;;8.88;4.05;;;;;;;23.58;57.81;100994.94;144992;633;6004;-81
2021/05/08 09:15:38;;;;;;;7.15;3.50;;;;;;;23.61;57.36;100986.94;144992;562;6004;-81
2021/05/08 09:18:07;;;;;;;8.05;3.40;;;;;;;23.56;58.14;100989.69;144991;537;6004;-80
2021/05/08 09:20:52;;;;;;;5.95;3.17;;;;;;;23.63;56.55;100993.94;144992;557;6002;-80
2021/05/08 09:23:23;;;;;;;7.82;3.12;;;;;;;23.56;57.55;100994.97;144992;564;6002;-80
2021/05/08 09:26:05;;;;;;;8.27;3.53;;;;;;;23.51;57.18;100991.53;144992;553;6002;-79
2021/05/08 09:28:34;;;;;;;7.00;4.05;;;;;;;23.53;56.10;101001.19;144992;550;6002;-80
2021/05/08 09:31:02;;;;;;;8.25;3.33;;;;;;;23.71;55.65;101001.72;144992;604;6002;-80
2021/05/08 09:33:32;;;;;;;7.47;2.80;;;;;;;23.64;54.90;100993.03;144992;587;6002;-79
2021/05/08 09:36:10;;;;;;;8.70;3.15;;;;;;;23.69;53.76;100993.81;144992;590;6002;-78
2021/05/08 09:38:43;;;;;;;6.93;2.60;;;;;;;23.72;53.74;101000.84;144992;570;6002;-82
2021/05/08 09:41:19;;;;;;;5.70;2.22;;;;;;;23.91;53.41;100996.06;144992;573;6002;-80
2021/05/08 09:43:46;;;;;;;6.37;2.28;;;;;;;24.05;52.97;100991.34;144992;565;6002;-81
2021/05/08 09:46:27;;;;;;;4.12;2.12;;;;;;;24.03;52.25;100997.56;144992;585;6002;-82
2021/05/08 09:49:15;;;;;;;3.87;1.80;;;;;;;23.96;49.13;100988.88;144992;616;6002;-80
2021/05/08 09:51:42;;;;;;;6.00;2.22;;;;;;;24.05;50.35;100986.03;144992;576;6002;-80
2021/05/08 09:54:17;;;;;;;4.60;1.83;;;;;;;24.03;50.34;100981.66;144991;623;6002;-80
2021/05/08 09:56:46;;;;;;;5.70;2.30;;;;;;;24.15;50.99;100986.69;144992;565;6002;-81
2021/05/08 09:59:44;;;;;;;9.05;2.20;;;;;;;24.25;49.61;100987.34;144992;577;6002;-82
2021/05/08 10:02:15;;;;;;;6.53;2.17;;;;;;;24.33;50.28;100981.88;144991;618;6000;-80
2021/05/08 10:04:49;;;;;;;4.07;2.00;;;;;;;24.37;49.78;100980.88;144992;576;6002;-80
2021/05/08 10:07:24;;;;;;;6.75;2.42;;;;;;;24.35;49.87;100978.25;144992;646;6003;-81
2021/05/08 10:09:53;;;;;;;4.80;2.25;;;;;;;24.33;49.59;100977.44;144992;651;6002;-81
2021/05/08 10:12:22;;;;;;;5.10;2.03;;;;;;;24.38;49.36;100969.37;144992;587;6002;-80
2021/05/08 10:14:50;;;;;;;5.32;2.40;;;;;;;24.45;48.22;100982.47;144992;586;6003;-81
2021/05/08 10:17:22;;;;;;;4.60;1.80;;;;;;;24.54;47.31;100980.50;144992;604;6002;-81
2021/05/08 10:19:51;;;;;;;4.00;2.40;;;;;;;24.49;47.81;100982.37;144992;637;6002;-77
2021/05/08 10:22:19;;;;;;;6.30;2.10;;;;;;;24.58;48.46;100984.84;144992;607;6002;-80
2021/05/08 10:24:47;;;;;;;4.00;1.80;;;;;;;24.65;47.49;100982.91;144992;581;6002;-80
2021/05/08 10:27:14;;;;;;;4.72;2.20;;;;;;;24.73;47.27;100975.63;144992;584;6002;-80
2021/05/08 10:29:49;;;;;;;5.25;2.03;;;;;;;24.97;47.46;100980.31;144992;645;6002;-80
2021/05/08 10:32:16;;;;;;;;;;;;;;;25.11;46.67;100969.31;144997;915;6002;-80
2021/05/08 10:35:01;;;;;;;4.05;2.20;;;;;;;25.01;46.30;100966.94;144997;579;6002;-80
2021/05/08 10:37:29;;;;;;;9.30;2.33;;;;;;;24.96;45.57;100965.31;144992;602;6002;-80
2021/05/08 10:40:28;;;;;;;6.22;2.05;;;;;;;25.08;44.27;100963.22;144992;564;6002;-79
2021/05/08 10:42:55;;;;;;;8.48;3.00;;;;;;;25.11;44.42;100960.50;144992;602;6004;-79
2021/05/08 10:45:32;;;;;;;3.40;2.10;;;;;;;25.20;44.29;100954.94;144992;633;6004;-78
2021/05/08 10:48:21;;;;;;;3.03;1.98;;;;;;;25.29;43.73;100954.72;144992;581;6004;-80
2021/05/08 10:50:55;;;;;;;5.78;1.85;;;;;;;25.18;43.90;100946.13;144992;573;6002;-80
2021/05/08 10:53:35;;;;;;;;;;;;;;;25.12;44.26;100943.66;144997;913;6002;-82
2021/05/08 10:56:04;;;;;;;7.65;2.47;;;;;;;25.24;42.16;100947.75;144997;569;6002;-81
2021/05/08 10:58:35;;;;;;;6.00;2.70;;;;;;;25.29;43.16;100948.50;144992;623;6002;-82
2021/05/08 11:01:12;;;;;;;5.47;2.70;;;;;;;25.29;43.72;100941.44;144992;618;6002;-79
2021/05/08 11:04:06;;;;;;;6.07;2.45;;;;;;;25.38;43.85;100942.94;144992;569;6002;-80
2021/05/08 11:06:33;;;;;;;5.72;2.55;;;;;;;25.23;45.49;100946.00;144992;568;6005;-79
2021/05/08 11:09:00;;;;;;;11.93;3.45;;;;;;;25.39;44.72;100939.38;144992;624;6004;-79
2021/05/08 11:11:50;;;;;;;16.17;4.70;;;;;;;25.13;48.07;100940.97;144992;581;6004;-80
2021/05/08 11:14:52;;;;;;;7.43;3.10;;;;;;;25.42;48.76;100947.28;144992;624;6003;-80
2021/05/08 11:17:18;;;;;;;8.05;4.00;;;;;;;25.42;48.82;100944.63;144992;566;6004;-79
2021/05/08 11:19:45;;;;;;;5.78;2.05;;;;;;;25.58;47.11;100946.81;144992;605;6004;-83
2021/05/08 11:22:15;;;;;;;7.60;2.62;;;;;;;25.45;48.04;100941.87;144992;570;6005;-80
2021/05/08 11:24:42;;;;;;;9.70;2.70;;;;;;;25.33;50.36;100951.03;144992;600;6004;-80
2021/05/08 11:27:25;;;;;;;3.87;2.28;;;;;;;25.42;48.97;100949.03;144992;601;6004;-78
2021/05/08 11:29:51;;;;;;;8.60;3.28;;;;;;;25.34;51.73;100951.91;144992;572;6004;-82
2021/05/08 11:32:19;;;;;;;6.47;2.80;;;;;;;25.29;51.87;100949.41;144992;566;6004;-80
2021/05/08 11:34:45;;;;;;;8.23;3.25;;;;;;;25.14;57.43;100945.34;144992;571;6004;-79
2021/05/08 11:37:17;;;;;;;11.07;3.00;;;;;;;25.42;52.29;100939.31;144992;595;6004;-81
2021/05/08 11:39:45;;;;;;;6.32;2.50;;;;;;;25.51;52.74;100940.81;144992;574;6004;-81